Time;durP1;ratioP1;P1;durP2;ratioP2;P2;SDS_P1;SDS_P2;PMS_P1;PMS_P2;Temp;Humidity;BMP_temperature;BMP_pressure;BME280_temperature;BME280_humidity;BME280_pressure;Samples;Min_cycle;Max_cycle;Signal;HPM_P1;HPM_P2
2022/11/29 00:01:23;;;;;;;5.72;4.60;;;6.90;99.90;;;;;;5020094;28;20639;-71
2022/11/29 00:03:51;;;;;;;7.33;5.17;;;6.90;99.90;;;;;;5018342;28;20295;-71
2022/11/29 00:06:19;;;;;;;5.13;3.95;;;6.90;99.90;;;;;;5030224;28;20674;-73
2022/11/29 00:08:49;;;;;;;3.53;3.00;;;6.80;99.90;;;;;;5029435;28;20288;-71
2022/11/29 00:12:10;;;;;;;7.47;4.77;;;6.90;99.90;;;;;;5030632;28;20207;-71
2022/11/29 00:14:05;;;;;;;3.75;3.33;;;6.90;99.90;;;;;;5029569;28;20633;-71
2022/11/29 00:16:33;;;;;;;3.23;2.93;;;6.90;99.90;;;;;;5012826;28;20639;-71
2022/11/29 00:18:59;;;;;;;4.45;3.55;;;6.90;99.90;;;;;;5029910;28;20678;-71
2022/11/29 00:21:26;;;;;;;5.40;4.20;;;6.90;99.90;;;;;;5029582;28;20207;-71
2022/11/29 00:23:55;;;;;;;2.38;2.00;;;6.90;99.90;;;;;;5030412;28;20205;-71
2022/11/29 00:26:22;;;;;;;3.90;3.30;;;6.90;99.90;;;;;;5029923;28;20554;-71
2022/11/29 00:28:49;;;;;;;3.90;2.90;;;6.90;99.90;;;;;;5030030;28;20634;-71
2022/11/29 00:31:20;;;;;;;6.57;4.53;;;6.90;99.90;;;;;;5029841;28;20990;-71
2022/11/29 00:33:47;;;;;;;2.97;2.67;;;6.90;99.90;;;;;;5029432;28;20211;-71
2022/11/29 00:36:15;;;;;;;5.00;4.40;;;6.90;99.90;;;;;;5029544;28;20623;-72
2022/11/29 00:38:42;;;;;;;5.53;4.03;;;7.00;99.90;;;;;;5029374;28;20654;-71
2022/11/29 00:41:11;;;;;;;8.33;4.03;;;6.90;99.90;;;;;;5029791;28;20201;-71
2022/11/29 00:43:38;;;;;;;6.60;5.07;;;7.00;99.90;;;;;;5029346;28;20654;-71
2022/11/29 00:46:05;;;;;;;3.43;2.60;;;6.90;99.90;;;;;;5029689;28;20634;-71
2022/11/29 00:48:32;;;;;;;6.67;4.87;;;6.90;99.90;;;;;;5028653;28;20633;-71
2022/11/29 00:50:59;;;;;;;6.60;2.90;;;6.90;99.90;;;;;;5029390;28;20696;-71
2022/11/29 00:53:26;;;;;;;4.57;3.33;;;6.90;99.90;;;;;;5015384;28;20996;-71
2022/11/29 00:55:53;;;;;;;3.33;3.00;;;6.90;99.90;;;;;;5029779;28;20638;-71
2022/11/29 00:58:22;;;;;;;3.43;2.80;;;6.80;99.90;;;;;;5028856;28;20984;-71
2022/11/29 01:00:49;;;;;;;3.63;3.43;;;6.90;99.90;;;;;;5027929;28;20726;-71
2022/11/29 01:03:17;;;;;;;2.80;2.60;;;6.90;99.90;;;;;;5015108;28;20624;-71
2022/11/29 01:05:44;;;;;;;2.77;2.53;;;6.90;99.90;;;;;;5029294;28;20630;-71
2022/11/29 01:08:11;;;;;;;4.00;3.60;;;6.90;99.90;;;;;;5029022;28;20726;-71
2022/11/29 01:10:38;;;;;;;4.00;3.17;;;6.90;99.90;;;;;;5029462;28;20207;-71
2022/11/29 01:13:05;;;;;;;3.60;2.67;;;6.90;99.90;;;;;;5028071;28;20710;-71
2022/11/29 01:15:33;;;;;;;3.40;3.10;;;6.90;99.90;;;;;;5028612;28;20623;-71
2022/11/29 01:18:00;;;;;;;5.53;4.40;;;6.90;99.90;;;;;;5028660;28;20663;-72
2022/11/29 01:20:27;;;;;;;4.70;3.60;;;6.90;99.90;;;;;;5029518;28;20667;-71
2022/11/29 01:22:54;;;;;;;3.57;3.10;;;6.90;99.90;;;;;;5028490;28;21236;-71
2022/11/29 01:25:21;;;;;;;3.53;2.78;;;6.90;99.90;;;;;;5029515;28;20622;-71
2022/11/29 01:27:48;;;;;;;3.30;2.93;;;6.90;99.90;;;;;;5028081;28;20210;-71
2022/11/29 01:30:15;;;;;;;3.50;3.20;;;6.90;99.90;;;;;;5029209;28;21034;-71
2022/11/29 01:32:43;;;;;;;4.50;3.75;;;6.90;99.90;;;;;;5028839;28;20647;-71
2022/11/29 01:35:10;;;;;;;6.03;3.10;;;6.90;99.90;;;;;;5023326;28;20200;-71
2022/11/29 01:37:36;;;;;;;5.53;2.83;;;6.90;99.90;;;;;;5009073;28;20631;-71
2022/11/29 01:40:04;;;;;;;5.33;3.40;;;7.00;99.90;;;;;;5009107;28;20648;-71
2022/11/29 01:42:31;;;;;;;2.73;2.33;;;6.90;99.90;;;;;;5017700;28;20627;-72
2022/11/29 01:45:06;;;;;;;4.63;3.73;;;6.90;99.90;;;;;;5028642;28;20638;-71
2022/11/29 01:47:34;;;;;;;4.53;2.97;;;6.90;99.90;;;;;;5019870;28;20647;-71
2022/11/29 01:50:03;;;;;;;3.60;3.30;;;6.90;99.90;;;;;;5026747;28;20638;-71
2022/11/29 01:52:32;;;;;;;2.80;2.60;;;6.90;99.90;;;;;;5010738;28;20628;-71
2022/11/29 01:55:03;;;;;;;5.33;3.73;;;7.00;99.90;;;;;;5027935;28;20638;-71
2022/11/29 01:57:31;;;;;;;5.30;3.43;;;7.00;99.90;;;;;;5027884;28;20623;-71
2022/11/29 02:00:02;;;;;;;5.00;3.00;;;7.00;99.90;;;;;;5022281;28;20675;-72
2022/11/29 02:02:31;;;;;;;3.22;2.85;;;7.00;99.90;;;;;;5027353;28;21243;-71
2022/11/29 02:05:00;;;;;;;4.73;3.00;;;7.00;99.90;;;;;;5026255;28;20207;-71
2022/11/29 02:07:29;;;;;;;5.83;2.50;;;7.00;99.90;;;;;;5026720;28;20646;-71
2022/11/29 02:09:56;;;;;;;2.75;2.55;;;7.00;99.90;;;;;;5028302;28;20641;-71
2022/11/29 02:12:31;;;;;;;2.27;1.97;;;7.00;99.90;;;;;;5028471;28;20589;-71
2022/11/29 02:15:09;;;;;;;3.73;3.20;;;7.00;99.90;;;;;;5028085;28;20710;-71
2022/11/29 02:17:50;;;;;;;2.70;1.83;;;6.90;99.90;;;;;;5027529;28;20626;-71
2022/11/29 02:20:50;;;;;;;3.03;2.60;;;7.00;99.90;;;;;;5027827;28;21109;-71
2022/11/29 02:23:51;;;;;;;3.43;2.30;;;7.00;99.90;;;;;;5027601;28;20627;-71
2022/11/29 02:26:42;;;;;;;3.17;2.97;;;6.90;99.90;;;;;;5021762;28;20638;-72
2022/11/29 02:29:41;;;;;;;4.10;2.90;;;6.90;99.90;;;;;;5027841;28;20623;-71
2022/11/29 02:32:48;;;;;;;4.03;3.67;;;7.00;99.90;;;;;;4978633;28;20635;-71
2022/11/29 02:35:28;;;;;;;2.60;1.90;;;7.00;99.90;;;;;;5022773;28;20630;-71
2022/11/29 02:38:15;;;;;;;5.10;4.03;;;7.00;99.90;;;;;;5026689;28;20619;-71
2022/11/29 02:41:00;;;;;;;3.17;2.93;;;6.90;99.90;;;;;;5027050;28;20675;-71
2022/11/29 02:43:52;;;;;;;4.73;3.00;;;7.00;99.90;;;;;;5027429;28;20667;-71
2022/11/29 02:46:51;;;;;;;3.20;2.63;;;7.00;99.90;;;;;;5027628;28;20729;-72
2022/11/29 02:49:34;;;;;;;2.73;2.53;;;7.00;99.90;;;;;;5025148;28;20982;-71
2022/11/29 02:52:06;;;;;;;2.30;2.10;;;7.00;99.90;;;;;;5027445;28;20639;-72
2022/11/29 02:54:42;;;;;;;3.03;2.33;;;7.00;99.90;;;;;;5027162;28;21027;-71
2022/11/29 02:57:20;;;;;;;2.27;1.73;;;7.00;99.90;;;;;;5027311;28;20208;-71
2022/11/29 02:59:59;;;;;;;3.83;3.13;;;6.90;99.90;;;;;;5016876;28;20781;-71
2022/11/29 03:02:33;;;;;;;3.00;2.70;;;6.90;99.90;;;;;;5021529;28;21203;-71
2022/11/29 03:05:10;;;;;;;2.23;2.03;;;6.90;99.90;;;;;;5027710;28;20657;-71
2022/11/29 03:07:46;;;;;;;2.73;2.00;;;6.90;99.90;;;;;;5026865;28;20646;-71
2022/11/29 03:10:23;;;;;;;3.88;2.85;;;6.90;99.90;;;;;;5026876;28;20627;-71
2022/11/29 03:12:53;;;;;;;2.10;1.93;;;6.90;99.90;;;;;;5027468;28;20200;-71
2022/11/29 03:15:29;;;;;;;3.50;2.30;;;6.80;99.90;;;;;;5027472;28;20638;-71
2022/11/29 03:18:08;;;;;;;2.92;2.10;;;6.90;99.90;;;;;;5027015;28;20631;-71
2022/11/29 03:20:49;;;;;;;3.10;2.60;;;6.90;99.90;;;;;;5007477;28;20248;-71
2022/11/29 03:23:23;;;;;;;4.78;3.83;;;6.90;99.90;;;;;;5026963;28;20674;-71
2022/11/29 03:25:59;;;;;;;3.88;2.35;;;6.90;99.90;;;;;;5027361;28;20208;-71
2022/11/29 03:28:31;;;;;;;2.80;2.15;;;6.90;99.90;;;;;;5026738;28;20206;-73
2022/11/29 03:31:06;;;;;;;7.23;3.27;;;6.90;99.90;;;;;;5026782;28;20280;-71
2022/11/29 03:33:43;;;;;;;3.03;1.93;;;6.90;99.90;;;;;;5025075;28;20639;-71
2022/11/29 03:36:21;;;;;;;2.33;2.23;;;6.90;99.90;;;;;;5021497;28;20657;-71
2022/11/29 03:38:55;;;;;;;3.67;2.90;;;7.00;99.90;;;;;;5008968;28;20627;-71
2022/11/29 03:41:28;;;;;;;5.07;3.10;;;7.00;99.90;;;;;;5018431;28;21505;-71
2022/11/29 03:44:00;;;;;;;2.50;2.37;;;7.00;99.90;;;;;;5011198;28;21046;-71
2022/11/29 03:46:34;;;;;;;2.80;2.60;;;7.00;99.90;;;;;;5026792;28;20615;-71
2022/11/29 03:49:07;;;;;;;4.63;4.23;;;6.90;99.90;;;;;;5012443;28;20619;-71
2022/11/29 03:51:50;;;;;;;2.30;1.92;;;7.00;99.90;;;;;;5028932;28;21021;-71
2022/11/29 03:54:26;;;;;;;2.23;2.07;;;7.00;99.90;;;;;;5030405;28;20251;-71
2022/11/29 03:56:54;;;;;;;2.40;2.20;;;7.00;99.90;;;;;;5030153;28;20729;-71
2022/11/29 03:59:36;;;;;;;2.50;2.30;;;7.00;99.90;;;;;;5023950;28;20612;-71
2022/11/29 04:02:45;;;;;;;3.70;3.40;;;7.00;99.90;;;;;;5018097;28;20725;-71
2022/11/29 04:05:42;;;;;;;2.60;2.10;;;7.00;99.90;;;;;;4991037;28;21291;-71
2022/11/29 04:08:46;;;;;;;8.50;3.63;;;7.00;99.90;;;;;;4990128;28;20645;-71
2022/11/29 04:12:00;;;;;;;2.47;2.27;;;7.00;99.90;;;;;;5030405;28;20623;-71
2022/11/29 04:14:56;;;;;;;2.80;2.10;;;7.00;99.90;;;;;;5030377;28;20627;-71
2022/11/29 04:17:44;;;;;;;3.93;2.40;;;7.00;99.90;;;;;;5013200;28;20653;-71
2022/11/29 04:20:49;;;;;;;3.58;2.17;;;7.00;99.90;;;;;;5025955;28;20991;-71
2022/11/29 04:23:55;;;;;;;2.47;2.27;;;7.00;99.90;;;;;;5029504;28;20659;-71
2022/11/29 04:26:58;;;;;;;3.63;2.30;;;7.00;99.90;;;;;;5030154;28;20631;-71
2022/11/29 04:29:39;;;;;;;1.80;1.55;;;7.00;99.90;;;;;;5029140;28;20730;-71
2022/11/29 04:32:26;;;;;;;3.35;2.50;;;7.00;99.90;;;;;;5019943;28;20211;-71
2022/11/29 04:35:10;;;;;;;4.20;2.00;;;6.90;99.90;;;;;;5029434;28;20247;-71
2022/11/29 04:37:59;;;;;;;1.90;1.70;;;7.00;99.90;;;;;;5028654;28;21218;-71
2022/11/29 04:40:50;;;;;;;1.60;1.50;;;7.00;99.90;;;;;;5030051;28;20669;-71
2022/11/29 04:43:43;;;;;;;3.33;1.98;;;7.00;99.90;;;;;;5021110;28;20908;-71
2022/11/29 04:46:29;;;;;;;2.53;1.60;;;7.00;99.90;;;;;;4993513;28;20240;-71
2022/11/29 04:49:19;;;;;;;3.55;3.28;;;7.00;99.90;;;;;;5019800;28;20627;-71
2022/11/29 04:52:01;;;;;;;2.47;1.60;;;7.00;99.90;;;;;;5026438;28;20239;-72
2022/11/29 04:54:34;;;;;;;3.13;2.00;;;7.00;99.90;;;;;;5029383;28;20205;-71
2022/11/29 04:57:07;;;;;;;3.00;1.87;;;7.00;99.90;;;;;;5029322;28;21552;-71
2022/11/29 04:59:43;;;;;;;1.03;1.03;;;7.00;99.90;;;;;;5018178;28;20623;-71
2022/11/29 05:02:23;;;;;;;1.63;1.35;;;7.00;99.90;;;;;;5028252;28;20623;-71
2022/11/29 05:04:58;;;;;;;1.57;1.27;;;7.10;99.90;;;;;;5028513;28;20193;-71
2022/11/29 05:07:31;;;;;;;0.93;0.83;;;7.00;99.90;;;;;;5019872;28;20651;-71
2022/11/29 05:10:11;;;;;;;1.83;1.70;;;7.00;99.90;;;;;;5029351;28;20631;-71
2022/11/29 05:12:47;;;;;;;1.67;1.40;;;7.00;99.90;;;;;;5028270;28;20641;-71
2022/11/29 05:15:36;;;;;;;5.47;1.10;;;7.00;99.90;;;;;;5028469;28;21367;-71
2022/11/29 05:18:14;;;;;;;2.07;0.87;;;7.00;99.90;;;;;;5028876;28;20627;-71
2022/11/29 05:20:48;;;;;;;1.50;1.10;;;7.00;99.90;;;;;;5009631;28;20662;-71
2022/11/29 05:23:39;;;;;;;3.47;1.40;;;7.00;99.90;;;;;;5026889;28;21252;-72
2022/11/29 05:26:12;;;;;;;1.37;0.80;;;7.00;99.90;;;;;;5018740;28;20628;-71
2022/11/29 05:28:48;;;;;;;0.90;0.90;;;7.10;99.90;;;;;;5025528;28;20655;-71
2022/11/29 05:31:29;;;;;;;0.93;0.93;;;7.00;99.90;;;;;;5028640;28;20638;-71
2022/11/29 05:34:20;;;;;;;0.90;0.90;;;7.00;99.90;;;;;;5023487;28;20634;-71
2022/11/29 05:36:56;;;;;;;2.17;1.43;;;7.00;99.90;;;;;;5023193;28;20284;-71
2022/11/29 05:39:35;;;;;;;1.90;1.00;;;7.10;99.90;;;;;;5009656;28;20620;-71
2022/11/29 05:42:30;;;;;;;2.03;1.70;;;7.00;99.90;;;;;;5015175;28;20670;-71
2022/11/29 05:45:04;;;;;;;1.10;0.90;;;7.00;99.90;;;;;;5016358;28;20218;-72
2022/11/29 05:47:41;;;;;;;1.45;1.33;;;7.00;99.90;;;;;;5020568;28;20274;-72
2022/11/29 05:50:13;;;;;;;1.42;1.00;;;7.10;99.90;;;;;;5019763;28;20203;-72
2022/11/29 05:52:50;;;;;;;1.63;1.15;;;7.10;99.90;;;;;;5025854;28;20682;-73
2022/11/29 05:55:25;;;;;;;1.85;1.50;;;7.10;99.90;;;;;;5027666;28;20196;-71
2022/11/29 05:57:58;;;;;;;2.60;1.83;;;7.00;99.90;;;;;;5025767;28;20737;-72
2022/11/29 06:00:29;;;;;;;1.00;0.90;;;7.00;99.90;;;;;;5026870;28;20670;-71
2022/11/29 06:03:02;;;;;;;1.80;1.63;;;7.10;99.90;;;;;;5026058;28;20205;-71
2022/11/29 06:05:35;;;;;;;1.10;1.00;;;7.00;99.90;;;;;;5011261;28;20988;-71
2022/11/29 06:08:08;;;;;;;1.60;1.50;;;7.00;99.90;;;;;;5026905;28;20201;-71
2022/11/29 06:10:38;;;;;;;4.00;2.20;;;7.00;99.90;;;;;;5027608;28;20210;-71
2022/11/29 06:13:17;;;;;;;0.70;0.70;;;6.90;99.90;;;;;;5027660;28;20627;-73
2022/11/29 06:16:07;;;;;;;1.35;1.25;;;6.90;99.90;;;;;;5027572;28;20207;-71
2022/11/29 06:19:12;;;;;;;2.08;1.35;;;6.90;99.90;;;;;;5026356;28;20196;-72
2022/11/29 06:21:46;;;;;;;1.13;0.80;;;6.90;99.90;;;;;;5027253;28;20232;-73
2022/11/29 06:24:29;;;;;;;2.38;0.98;;;6.90;99.90;;;;;;5027648;28;20212;-71
2022/11/29 06:27:28;;;;;;;2.20;1.48;;;6.90;99.90;;;;;;5026268;28;20459;-71
2022/11/29 06:30:02;;;;;;;2.63;1.10;;;7.00;99.90;;;;;;5027605;28;20225;-72
2022/11/29 06:32:39;;;;;;;1.38;0.80;;;7.00;99.90;;;;;;5027425;28;20567;-72
2022/11/29 06:35:18;;;;;;;1.63;1.13;;;7.00;99.90;;;;;;5027196;28;20464;-71
2022/11/29 06:37:50;;;;;;;1.20;1.10;;;6.90;99.90;;;;;;5026215;28;21210;-71
2022/11/29 06:40:17;;;;;;;1.40;1.30;;;6.90;99.90;;;;;;5027844;28;21005;-71
2022/11/29 06:42:44;;;;;;;3.30;2.10;;;7.00;99.90;;;;;;5026748;28;20565;-72
2022/11/29 06:45:13;;;;;;;1.90;0.90;;;7.00;99.90;;;;;;5027709;28;20200;-72
2022/11/29 06:47:44;;;;;;;3.43;1.10;;;6.90;99.90;;;;;;5026641;28;20626;-71
2022/11/29 06:50:29;;;;;;;2.70;1.60;;;7.00;99.90;;;;;;5027219;28;20638;-71
2022/11/29 06:53:06;;;;;;;2.40;2.20;;;6.90;99.90;;;;;;5026409;28;20203;-71
2022/11/29 06:55:42;;;;;;;1.53;1.43;;;7.00;99.90;;;;;;5022331;28;20197;-71
2022/11/29 06:58:20;;;;;;;1.63;1.47;;;6.90;99.90;;;;;;5013955;28;20627;-71
2022/11/29 07:00:55;;;;;;;1.83;1.73;;;6.90;99.90;;;;;;5026740;28;20698;-71
2022/11/29 07:03:51;;;;;;;2.40;1.47;;;6.90;99.90;;;;;;5005004;28;21249;-70
2022/11/29 07:06:22;;;;;;;0.57;0.57;;;6.90;99.90;;;;;;5023659;28;20635;-70
2022/11/29 07:08:53;;;;;;;2.85;2.25;;;6.90;99.90;;;;;;5022968;28;20746;-70
2022/11/29 07:11:20;;;;;;;2.33;1.67;;;6.90;99.90;;;;;;5027050;28;20200;-70
2022/11/29 07:13:48;;;;;;;1.38;1.27;;;6.90;99.90;;;;;;5026061;28;20639;-70
2022/11/29 07:16:24;;;;;;;3.50;2.60;;;6.90;99.90;;;;;;5027166;28;20256;-71
2022/11/29 07:19:02;;;;;;;1.85;0.93;;;7.00;99.90;;;;;;5023574;28;20196;-70
2022/11/29 07:21:45;;;;;;;1.83;1.65;;;6.90;99.90;;;;;;5027100;28;20224;-71
2022/11/29 07:24:29;;;;;;;1.57;1.17;;;6.90;99.90;;;;;;5011828;28;20193;-70
2022/11/29 07:27:04;;;;;;;1.75;1.00;;;6.90;99.90;;;;;;5029924;28;20615;-70
2022/11/29 07:29:38;;;;;;;1.27;1.17;;;6.90;99.90;;;;;;5030767;28;20200;-71
2022/11/29 07:32:12;;;;;;;1.40;0.65;;;6.90;99.90;;;;;;5031110;28;20627;-70
2022/11/29 07:34:50;;;;;;;1.60;1.50;;;6.90;99.90;;;;;;5019556;28;20194;-71
2022/11/29 07:37:26;;;;;;;2.45;2.25;;;7.00;99.90;;;;;;5026367;28;20204;-71
2022/11/29 07:40:00;;;;;;;2.80;2.20;;;6.90;99.90;;;;;;5014797;28;20204;-70
2022/11/29 07:42:36;;;;;;;2.03;1.17;;;6.90;99.90;;;;;;5029998;28;20587;-71
2022/11/29 07:45:14;;;;;;;2.20;1.75;;;6.90;99.90;;;;;;5030082;28;20215;-71
2022/11/29 07:47:41;;;;;;;1.10;1.07;;;7.00;99.90;;;;;;5029918;28;20307;-70
2022/11/29 07:50:08;;;;;;;1.43;1.10;;;7.00;99.90;;;;;;5030574;28;20631;-70
2022/11/29 07:52:37;;;;;;;1.30;1.20;;;7.00;99.90;;;;;;5030617;28;20627;-70
2022/11/29 07:55:04;;;;;;;1.73;1.63;;;7.00;99.90;;;;;;5029071;28;20626;-70
2022/11/29 07:57:31;;;;;;;1.30;1.20;;;7.00;99.90;;;;;;5014998;28;20619;-71
2022/11/29 07:59:58;;;;;;;0.80;0.80;;;7.00;99.90;;;;;;5030437;28;20627;-70
2022/11/29 08:02:28;;;;;;;3.47;3.17;;;7.00;99.90;;;;;;5030106;28;20589;-70
2022/11/29 08:04:55;;;;;;;1.40;1.30;;;7.00;99.90;;;;;;5030443;28;20686;-72
2022/11/29 08:07:23;;;;;;;1.83;1.73;;;7.00;99.90;;;;;;5029400;28;20212;-70
2022/11/29 08:09:51;;;;;;;4.00;2.45;;;7.00;99.90;;;;;;5027222;28;20292;-70
2022/11/29 08:12:18;;;;;;;1.40;1.20;;;7.10;99.90;;;;;;5028351;28;20221;-71
2022/11/29 08:14:45;;;;;;;1.30;0.83;;;7.00;99.90;;;;;;5030289;28;20719;-72
2022/11/29 08:17:11;;;;;;;1.57;1.30;;;7.10;99.90;;;;;;5029221;28;20638;-70
2022/11/29 08:19:38;;;;;;;1.88;1.75;;;7.10;99.90;;;;;;5030332;28;20607;-70
2022/11/29 08:22:05;;;;;;;2.80;1.77;;;7.10;99.90;;;;;;5029481;28;20220;-71
2022/11/29 08:24:32;;;;;;;1.63;1.53;;;7.00;99.90;;;;;;5029694;28;21059;-71
2022/11/29 08:27:00;;;;;;;1.20;1.20;;;7.10;99.90;;;;;;5029159;28;20664;-71
2022/11/29 08:29:27;;;;;;;1.65;0.95;;;7.10;99.90;;;;;;5029891;28;20638;-70
2022/11/29 08:31:54;;;;;;;3.13;2.67;;;7.10;99.90;;;;;;5028703;28;20201;-70
2022/11/29 08:34:22;;;;;;;1.63;1.15;;;7.10;99.90;;;;;;5029525;28;20655;-70
2022/11/29 08:36:49;;;;;;;1.43;1.10;;;7.10;99.90;;;;;;5026223;28;20197;-71
2022/11/29 08:39:16;;;;;;;2.00;0.93;;;7.10;99.90;;;;;;5029196;28;20726;-71
2022/11/29 08:41:43;;;;;;;1.87;1.27;;;7.10;99.90;;;;;;5029338;28;20673;-71
2022/11/29 08:44:11;;;;;;;2.03;1.20;;;7.10;99.90;;;;;;5029575;28;20718;-71
2022/11/29 08:49:22;;;;;;;1.10;1.00;;;7.10;99.90;;;;;;5018867;28;20631;-71
2022/11/29 08:51:51;;;;;;;0.93;0.90;;;7.20;99.90;;;;;;5029067;28;20627;-70
2022/11/29 08:54:17;;;;;;;2.73;2.53;;;7.20;99.90;;;;;;5010214;28;20627;-70
2022/11/29 08:56:44;;;;;;;2.03;1.60;;;7.20;99.90;;;;;;5023663;28;20623;-71
2022/11/29 08:59:12;;;;;;;2.20;0.77;;;7.10;99.90;;;;;;5024558;28;20244;-70
2022/11/29 09:01:39;;;;;;;2.03;1.20;;;7.20;99.90;;;;;;5022943;28;20666;-71
2022/11/29 09:04:09;;;;;;;3.05;0.90;;;7.10;99.90;;;;;;5029152;28;20987;-71
2022/11/29 09:06:39;;;;;;;1.50;1.40;;;7.00;99.90;;;;;;5028392;28;20209;-70
2022/11/29 09:09:06;;;;;;;3.90;1.07;;;7.20;99.90;;;;;;5029287;28;20635;-70
2022/11/29 09:11:34;;;;;;;1.67;1.57;;;7.20;99.90;;;;;;5025269;28;20639;-71
2022/11/29 09:14:03;;;;;;;0.98;0.88;;;7.20;99.90;;;;;;5029336;28;20623;-70
2022/11/29 09:16:34;;;;;;;1.40;0.80;;;7.20;99.90;;;;;;5020856;28;20584;-71
2022/11/29 09:19:01;;;;;;;1.27;1.17;;;7.20;99.90;;;;;;5009026;28;20200;-71
2022/11/29 09:21:30;;;;;;;1.30;1.10;;;7.20;99.90;;;;;;5009583;28;20671;-70
2022/11/29 09:23:59;;;;;;;1.43;1.33;;;7.30;99.90;;;;;;5009343;28;20651;-70
2022/11/29 09:26:28;;;;;;;2.20;1.50;;;7.20;99.90;;;;;;5008930;28;20616;-70
2022/11/29 09:28:56;;;;;;;0.67;0.67;;;7.20;99.90;;;;;;5020585;28;20619;-70
2022/11/29 09:31:23;;;;;;;0.63;0.47;;;7.20;99.90;;;;;;5027118;28;20631;-70
2022/11/29 09:33:51;;;;;;;1.70;1.60;;;7.20;99.90;;;;;;5024554;28;20623;-70
2022/11/29 09:36:18;;;;;;;1.30;1.20;;;7.30;99.90;;;;;;5009018;28;20632;-70
2022/11/29 09:38:45;;;;;;;2.60;1.20;;;7.20;99.90;;;;;;5008697;28;21103;-70
2022/11/29 09:41:32;;;;;;;1.57;1.47;;;7.20;99.90;;;;;;5009047;28;20675;-71
2022/11/29 09:44:06;;;;;;;1.77;1.67;;;7.30;99.90;;;;;;5018906;28;20623;-71
2022/11/29 09:46:43;;;;;;;1.80;1.27;;;7.20;99.90;;;;;;5027877;28;20334;-70
2022/11/29 09:49:26;;;;;;;1.20;1.10;;;7.30;99.90;;;;;;5008488;28;21191;-70
2022/11/29 09:52:00;;;;;;;1.60;1.50;;;7.20;99.90;;;;;;5024273;28;21002;-70
2022/11/29 09:54:36;;;;;;;5.07;2.70;;;7.20;99.90;;;;;;5027501;28;20631;-70
2022/11/29 09:57:06;;;;;;;2.37;1.20;;;7.20;99.90;;;;;;5027739;28;20638;-70
2022/11/29 09:59:37;;;;;;;1.47;1.23;;;7.20;99.90;;;;;;5028231;28;20613;-70
2022/11/29 10:02:14;;;;;;;4.07;1.73;;;7.20;99.90;;;;;;5026735;28;20654;-70
2022/11/29 10:04:48;;;;;;;3.05;1.55;;;7.20;99.90;;;;;;5027703;28;20627;-71
2022/11/29 10:07:20;;;;;;;1.43;0.93;;;7.20;99.90;;;;;;5025892;28;20254;-70
2022/11/29 10:09:53;;;;;;;2.33;2.10;;;7.10;99.90;;;;;;5024951;28;21219;-70
2022/11/29 10:12:26;;;;;;;4.87;1.70;;;7.20;99.90;;;;;;5026533;28;20283;-70
2022/11/29 10:14:59;;;;;;;2.47;1.97;;;7.20;99.90;;;;;;5028557;28;20658;-70
2022/11/29 10:17:34;;;;;;;3.33;2.45;;;7.20;99.90;;;;;;5026842;28;21200;-71
2022/11/29 10:20:06;;;;;;;2.17;0.97;;;7.20;99.90;;;;;;5027770;28;20200;-71
2022/11/29 10:22:40;;;;;;;1.47;1.37;;;7.20;99.90;;;;;;5027817;28;20751;-71
2022/11/29 10:25:09;;;;;;;2.03;1.83;;;7.30;99.90;;;;;;5027866;28;20635;-71
2022/11/29 10:27:40;;;;;;;3.33;1.60;;;7.30;99.90;;;;;;5026638;28;20627;-70
2022/11/29 10:30:13;;;;;;;1.57;1.43;;;7.30;99.90;;;;;;5028013;28;20651;-70
2022/11/29 10:32:41;;;;;;;3.03;1.90;;;7.30;99.90;;;;;;5024993;28;20627;-70
2022/11/29 10:35:14;;;;;;;1.00;0.93;;;7.30;99.90;;;;;;5027149;28;20643;-70
2022/11/29 10:37:41;;;;;;;4.10;2.90;;;7.30;99.90;;;;;;5026600;28;20200;-70
2022/11/29 10:40:14;;;;;;;2.37;1.10;;;7.30;99.90;;;;;;5026677;28;20748;-71
2022/11/29 10:42:52;;;;;;;3.20;2.07;;;7.30;99.90;;;;;;5024279;28;20681;-70
2022/11/29 10:45:26;;;;;;;3.03;1.70;;;7.30;99.90;;;;;;5027536;28;20758;-70
2022/11/29 10:47:56;;;;;;;4.50;1.90;;;7.20;99.90;;;;;;5026532;28;21318;-70
2022/11/29 10:50:26;;;;;;;1.05;0.95;;;7.20;99.90;;;;;;5027072;28;20204;-70
2022/11/29 10:52:57;;;;;;;1.15;1.05;;;7.20;99.90;;;;;;5026006;28;20207;-71
2022/11/29 10:55:26;;;;;;;3.60;1.73;;;7.20;99.90;;;;;;5027900;28;20299;-70
2022/11/29 10:58:24;;;;;;;3.05;1.60;;;7.20;99.90;;;;;;5026614;28;20292;-71
2022/11/29 11:00:57;;;;;;;1.50;1.17;;;7.30;99.90;;;;;;4944657;29;20211;-70
2022/11/29 11:03:33;;;;;;;1.80;1.47;;;7.20;99.90;;;;;;5011684;28;20687;-70
2022/11/29 11:06:06;;;;;;;2.73;2.50;;;7.20;99.90;;;;;;5023833;28;20705;-71
2022/11/29 11:08:34;;;;;;;2.90;2.70;;;7.20;99.90;;;;;;5026456;28;21056;-71
2022/11/29 11:11:03;;;;;;;2.20;2.03;;;7.20;99.90;;;;;;5025091;28;20647;-70
2022/11/29 11:13:32;;;;;;;6.20;2.70;;;7.30;99.90;;;;;;5024926;28;20637;-71
2022/11/29 11:16:09;;;;;;;2.60;1.45;;;7.30;99.90;;;;;;5026813;28;20730;-70
2022/11/29 11:18:37;;;;;;;2.37;1.77;;;7.30;99.90;;;;;;5025737;28;20207;-71
2022/11/29 11:21:09;;;;;;;1.80;1.70;;;7.30;99.90;;;;;;5027635;28;20742;-70
2022/11/29 11:23:38;;;;;;;3.13;2.03;;;7.20;99.90;;;;;;5026737;28;20673;-71
2022/11/29 11:26:07;;;;;;;5.63;3.33;;;7.40;99.90;;;;;;5026464;28;20628;-71
2022/11/29 11:28:41;;;;;;;3.63;2.57;;;7.40;99.90;;;;;;5018973;28;20207;-71
2022/11/29 11:31:10;;;;;;;3.23;2.40;;;7.40;99.90;;;;;;5022165;28;20631;-71
2022/11/29 11:33:39;;;;;;;3.70;2.87;;;7.40;99.90;;;;;;5011307;28;20655;-71
2022/11/29 11:36:14;;;;;;;3.40;2.00;;;7.50;99.90;;;;;;5007626;28;20631;-71
2022/11/29 11:38:49;;;;;;;3.30;2.23;;;7.40;99.90;;;;;;5025439;28;21133;-71
2022/11/29 11:41:20;;;;;;;3.10;2.67;;;7.40;99.90;;;;;;5026741;28;20702;-70
2022/11/29 11:43:56;;;;;;;2.80;2.60;;;7.40;99.90;;;;;;5026756;28;20623;-71
2022/11/29 11:46:22;;;;;;;1.83;1.70;;;7.50;99.90;;;;;;5026757;28;20622;-70
2022/11/29 11:48:51;;;;;;;5.07;2.57;;;7.50;99.90;;;;;;5025912;28;20631;-71
2022/11/29 11:51:25;;;;;;;2.73;2.50;;;7.50;99.90;;;;;;5026835;28;21217;-71
2022/11/29 11:53:55;;;;;;;2.53;1.90;;;7.40;99.90;;;;;;5026877;28;20637;-71
2022/11/29 11:56:24;;;;;;;2.97;1.83;;;7.40;99.90;;;;;;5026369;28;20627;-71
2022/11/29 11:58:54;;;;;;;3.53;1.90;;;7.40;99.90;;;;;;5016847;28;20617;-70
2022/11/29 12:01:29;;;;;;;2.53;2.33;;;7.40;99.90;;;;;;5016646;28;20711;-71
2022/11/29 12:04:03;;;;;;;1.83;1.43;;;7.40;99.90;;;;;;5007719;28;20631;-71
2022/11/29 12:06:45;;;;;;;2.37;1.33;;;7.50;99.90;;;;;;5007811;28;21113;-71
2022/11/29 12:09:19;;;;;;;1.90;1.60;;;7.50;99.90;;;;;;5007207;28;20616;-71
2022/11/29 12:11:54;;;;;;;2.10;1.97;;;7.40;99.90;;;;;;5023560;28;20637;-70
2022/11/29 12:14:29;;;;;;;2.37;2.17;;;7.50;99.90;;;;;;5030500;28;20622;-71
2022/11/29 12:17:10;;;;;;;1.50;1.40;;;7.60;99.90;;;;;;5029045;28;20638;-72
2022/11/29 12:19:46;;;;;;;1.10;1.00;;;7.60;99.90;;;;;;5030241;28;20627;-71
2022/11/29 12:22:22;;;;;;;2.60;2.40;;;7.50;99.90;;;;;;5028797;28;20650;-71
2022/11/29 12:24:55;;;;;;;4.43;1.40;;;7.50;99.90;;;;;;5030636;28;20623;-71
2022/11/29 12:27:22;;;;;;;2.43;2.20;;;7.50;99.90;;;;;;5029656;28;20623;-71
2022/11/29 12:29:49;;;;;;;4.10;2.10;;;7.50;99.90;;;;;;5030242;28;21259;-70
2022/11/29 12:32:39;;;;;;;1.63;1.53;;;7.50;99.90;;;;;;5029883;28;21303;-71
2022/11/29 12:35:45;;;;;;;2.97;1.87;;;7.50;99.90;;;;;;5030225;28;20665;-70
2022/11/29 12:38:31;;;;;;;1.40;1.33;;;7.50;99.90;;;;;;5021041;28;20729;-71
2022/11/29 12:41:04;;;;;;;2.60;1.83;;;7.50;99.90;;;;;;5029197;28;20730;-70
2022/11/29 12:43:42;;;;;;;1.83;1.33;;;7.50;99.90;;;;;;5029715;28;20744;-71
2022/11/29 12:46:14;;;;;;;2.40;1.33;;;7.60;99.90;;;;;;5029609;28;21505;-70
2022/11/29 12:48:52;;;;;;;2.20;1.93;;;7.60;99.90;;;;;;5028899;28;21014;-70
2022/11/29 12:51:26;;;;;;;1.27;1.07;;;7.60;99.90;;;;;;5029066;28;20626;-71
2022/11/29 12:54:14;;;;;;;1.70;1.13;;;7.60;99.90;;;;;;5029290;28;20721;-71
2022/11/29 12:56:47;;;;;;;2.10;1.93;;;7.50;99.90;;;;;;5029229;28;20742;-71
2022/11/29 12:59:27;;;;;;;1.60;1.33;;;7.50;99.90;;;;;;5028105;28;20726;-71
2022/11/29 13:02:11;;;;;;;2.70;2.50;;;7.60;99.90;;;;;;5028858;28;20745;-70
2022/11/29 13:04:45;;;;;;;2.50;2.00;;;7.50;99.90;;;;;;5028554;28;20631;-71
2022/11/29 13:07:23;;;;;;;3.03;2.70;;;7.40;99.90;;;;;;5028762;28;20667;-71
2022/11/29 13:10:25;;;;;;;1.83;1.73;;;7.40;99.90;;;;;;5029030;28;20718;-71
2022/11/29 13:12:55;;;;;;;2.40;1.90;;;7.40;99.90;;;;;;5018642;28;21228;-70
2022/11/29 13:15:37;;;;;;;2.25;1.80;;;7.30;99.90;;;;;;5019331;28;20629;-71
2022/11/29 13:18:10;;;;;;;2.70;1.55;;;7.30;99.90;;;;;;5025592;28;20307;-71
2022/11/29 13:20:42;;;;;;;1.93;1.70;;;7.20;99.90;;;;;;5027604;28;20189;-71
2022/11/29 13:23:17;;;;;;;2.00;1.80;;;7.30;99.90;;;;;;5027849;28;20659;-71
2022/11/29 13:25:50;;;;;;;2.17;1.40;;;7.30;99.90;;;;;;5028211;28;20742;-71
2022/11/29 13:28:22;;;;;;;3.40;2.53;;;7.20;99.90;;;;;;5028158;28;20204;-73
2022/11/29 13:30:50;;;;;;;3.57;1.57;;;7.30;99.90;;;;;;5028002;28;20666;-70
2022/11/29 13:33:25;;;;;;;4.23;2.17;;;7.20;99.90;;;;;;5027012;28;20980;-71
2022/11/29 13:35:59;;;;;;;2.22;1.67;;;7.30;99.90;;;;;;5028815;28;20633;-71
2022/11/29 13:38:30;;;;;;;2.83;2.17;;;7.30;99.90;;;;;;5027350;28;20247;-70
2022/11/29 13:41:10;;;;;;;2.35;1.75;;;7.30;99.90;;;;;;5029358;28;20726;-70